Mayfield, KY (42066)

2:49 PM CDT on July 05, 2015 (GMT -0500)
Highway 131 | | Change Station
CLOSE
Current Station
Personal Weather Station
Location: Mayfield, KY
Elevation: 495 ft
Nearby Weather Stations

Elev 495 ft 36.80 °N, 88.60 °W | Updated 5 minutes ago

Partly Cloudy
Partly Cloudy
86.0 °F
Feels Like 91 °F
N
4.2
Wind Variable Wind from West

Today
High -- | Low -- °F
--% Chance of Precip.
Yesterday
High -- | Low -- °F
Precip. -- in
5:41 AM 8:16 PM
Waning Gibbous, 82% visible
Pressure 30.09 in
Visibility 10.0 miles
Clouds Scattered Clouds 4100 ft
Scattered Clouds 4700 ft
Heat Index 91 °F
Dew Point 71 °F
Humidity 61%
Rainfall 0.00 in
Snow Depth Not available.
UV 8 out of 12
Pollen 3.70 out of 12
Air Quality Not available.
Flu Activity Not available.
METAR KM25 051935Z AUTO 25004KT 10SM SCT041 SCT047 28/18 A3009 RMK AO2 PWINO

More Conditions Fewer Conditions

Pressure 30.09 in
Visibility 10.0 miles
Clouds Scattered Clouds 4100 ft
Scattered Clouds 4700 ft
Heat Index 91 °F
Dew Point 71 °F
Humidity 61%
Rainfall 0.00 in
Snow Depth Not available.
UV 8 out of 12
Pollen 3.70 out of 12
Air Quality Not available.
Flu Activity Not available.
METAR KM25 051935Z AUTO 25004KT 10SM SCT041 SCT047 28/18 A3009 RMK AO2 PWINO

More Conditions Fewer Conditions

10-Day Weather Forecast

×

Almanac

Astronomy

Jul. 05, 2015 Rise Set
Actual Time
Civil Twilight
Nautical Twilight
Astronomical Twilight
Moon
Length of Visible Light
Length of Day
Tomorrow will be .
, % of the Moon is Illuminated

Today's Extremes

State Highs State Lows

Community

WunderPhotos

Upload Photos

1,835,360 photos uploaded!

WunderBlogs® & News

Nearby

Air Quality

  Air Quality AQ Index Pollutant
Not available.

Snow Depth

Station Depth Elevation

Earthquake Activity

City Distance Mag. Time & Date
Minimum magnitude displayed is 2.5.

Coastal Water Temperatures

Place Temperature

Stations

Nearby Weather Stations

Station Location Temp. Windchill Dew Point Humidity Wind Precip. Elev Updated Type